createdAt,value
2023-05-02T00:00:19.880Z,0.00
2023-05-02T00:05:24.287Z,0.00
2023-05-02T00:10:30.484Z,0.00
2023-05-02T00:15:19.315Z,0.00
2023-05-02T00:20:25.921Z,0.00
2023-05-02T00:25:31.454Z,0.00
2023-05-02T00:30:20.488Z,0.00
2023-05-02T00:35:26.919Z,0.00
2023-05-02T00:40:32.837Z,0.00
2023-05-02T00:45:21.868Z,0.00
2023-05-02T00:50:27.901Z,0.00
2023-05-02T00:55:16.957Z,0.00
2023-05-02T01:00:23.108Z,0.00
2023-05-02T01:05:28.765Z,0.00
2023-05-02T01:10:17.533Z,0.00
2023-05-02T01:15:23.794Z,0.00
2023-05-02T01:20:29.905Z,0.00
2023-05-02T01:25:18.953Z,0.00
2023-05-02T01:30:24.979Z,0.00
2023-05-02T01:35:31.220Z,0.00
2023-05-02T01:40:20.182Z,0.00
2023-05-02T01:45:26.243Z,0.00
2023-05-02T01:50:32.509Z,0.00
2023-05-02T01:55:21.093Z,0.00
2023-05-02T02:00:28.796Z,0.00
2023-05-02T02:05:32.296Z,0.00
2023-05-02T02:10:21.522Z,0.00
2023-05-02T02:15:27.371Z,0.00
2023-05-02T02:20:16.666Z,0.00
2023-05-02T02:25:22.484Z,0.00
2023-05-02T02:30:28.577Z,0.00
2023-05-02T02:35:17.649Z,0.00
2023-05-02T02:40:24.925Z,0.00
2023-05-02T02:45:29.961Z,0.00
2023-05-02T02:50:18.821Z,0.00
2023-05-02T02:55:24.821Z,0.00
2023-05-02T03:00:31.932Z,0.00
2023-05-02T03:05:19.889Z,0.00
2023-05-02T03:10:25.921Z,0.00
2023-05-02T03:15:32.099Z,0.00
2023-05-02T03:20:22.266Z,0.00
2023-05-02T03:25:27.748Z,0.00
2023-05-02T03:30:33.192Z,0.00
2023-05-02T03:35:22.028Z,0.00
2023-05-02T03:40:28.303Z,0.00
2023-05-02T03:45:17.366Z,0.02
2023-05-02T03:50:23.431Z,0.21
2023-05-02T03:55:29.480Z,1.29
2023-05-02T04:00:21.518Z,2.82
2023-05-02T04:05:23.842Z,5.48
2023-05-02T04:10:29.894Z,8.48
2023-05-02T04:15:19.125Z,12.10
2023-05-02T04:20:25.347Z,15.61
2023-05-02T04:25:31.242Z,17.71
2023-05-02T04:30:20.096Z,20.37
2023-05-02T04:35:26.180Z,24.34
2023-05-02T04:40:32.446Z,26.62
2023-05-02T04:45:21.428Z,28.29
2023-05-02T04:50:27.526Z,30.81
2023-05-02T04:55:33.401Z,36.09
2023-05-02T05:00:24.997Z,41.27
2023-05-02T05:05:29.157Z,46.12
2023-05-02T05:10:18.137Z,51.80
2023-05-02T05:15:24.261Z,54.76
2023-05-02T05:20:30.342Z,60.72
2023-05-02T05:25:19.183Z,69.87
2023-05-02T05:30:25.427Z,81.78
2023-05-02T05:35:33.087Z,96.51
2023-05-02T05:40:22.355Z,114.17
2023-05-02T05:45:26.630Z,114.81
2023-05-02T05:50:32.495Z,155.47
2023-05-02T05:55:21.625Z,164.99
2023-05-02T06:00:30.314Z,143.42
2023-05-02T06:05:33.025Z,141.80
2023-05-02T06:10:22.254Z,148.38
2023-05-02T06:15:28.167Z,140.33
2023-05-02T06:20:18.730Z,131.65
2023-05-02T06:25:23.445Z,136.98
2023-05-02T06:30:29.471Z,135.76
2023-05-02T06:35:18.538Z,128.91
2023-05-02T06:40:24.595Z,134.79
2023-05-02T06:45:30.989Z,147.58
2023-05-02T06:50:19.553Z,157.34
2023-05-02T06:55:25.792Z,171.70
2023-05-02T07:00:31.999Z,185.41
2023-05-02T07:05:19.252Z,191.94
2023-05-02T07:10:25.147Z,200.31
2023-05-02T07:15:31.205Z,217.59
2023-05-02T07:20:21.179Z,221.95
2023-05-02T07:25:26.307Z,220.21
2023-05-02T07:30:32.754Z,205.64
2023-05-02T07:35:21.570Z,199.42
2023-05-02T07:40:27.530Z,206.25
2023-05-02T07:45:16.574Z,233.23
2023-05-02T07:50:24.730Z,256.75
2023-05-02T07:55:28.847Z,249.78
2023-05-02T08:00:21.828Z,260.92
2023-05-02T08:05:23.197Z,278.68
2023-05-02T08:10:29.411Z,295.19
2023-05-02T08:15:18.263Z,292.88
2023-05-02T08:20:24.453Z,297.73
2023-05-02T08:25:30.594Z,322.20
2023-05-02T08:30:19.608Z,337.11
2023-05-02T08:35:25.688Z,336.48
2023-05-02T08:40:40.995Z,415.70
2023-05-02T08:45:20.604Z,413.85
2023-05-02T08:50:28.069Z,494.24
2023-05-02T08:55:33.023Z,342.55
2023-05-02T09:00:23.197Z,277.20
2023-05-02T09:05:27.213Z,295.96
2023-05-02T09:10:16.496Z,366.99
2023-05-02T09:15:22.534Z,430.97
2023-05-02T09:20:28.623Z,449.01
2023-05-02T09:25:17.626Z,373.05
2023-05-02T09:30:23.682Z,355.34
2023-05-02T09:35:29.778Z,320.53
2023-05-02T09:40:19.834Z,293.60
2023-05-02T09:45:24.863Z,259.21
2023-05-02T09:50:32.328Z,248.79
2023-05-02T09:55:19.953Z,257.66
2023-05-02T10:00:32.232Z,237.63
2023-05-02T10:05:31.768Z,217.06
2023-05-02T10:10:20.785Z,227.51
2023-05-02T10:15:27.119Z,225.44
2023-05-02T10:20:32.945Z,213.22
2023-05-02T10:25:21.725Z,187.91
2023-05-02T10:30:27.814Z,157.82
2023-05-02T10:35:16.665Z,148.48
2023-05-02T10:40:24.220Z,159.78
2023-05-02T10:45:28.923Z,178.86
2023-05-02T10:50:17.877Z,201.21
2023-05-02T10:55:23.986Z,227.56
2023-05-02T11:00:31.451Z,265.20
2023-05-02T11:05:19.184Z,320.21
2023-05-02T11:10:25.032Z,381.34
2023-05-02T11:15:30.916Z,529.07
2023-05-02T11:20:21.707Z,561.49
2023-05-02T11:25:26.240Z,456.28
2023-05-02T11:30:32.266Z,564.80
2023-05-02T11:35:21.147Z,614.50
2023-05-02T11:40:28.841Z,601.42
2023-05-02T11:45:33.808Z,625.07
2023-05-02T11:50:22.544Z,588.19
2023-05-02T11:55:28.621Z,626.88
2023-05-02T12:00:22.027Z,684.74
2023-05-02T12:05:23.505Z,442.44
2023-05-02T12:10:29.335Z,337.67
2023-05-02T12:15:18.379Z,286.75
2023-05-02T12:20:25.589Z,417.78
2023-05-02T12:25:30.457Z,791.93
2023-05-02T12:30:19.573Z,753.50
2023-05-02T12:35:25.426Z,595.26
2023-05-02T12:40:31.685Z,707.25
2023-05-02T12:45:20.695Z,249.93
2023-05-02T12:50:27.002Z,124.82
2023-05-02T12:55:33.206Z,97.05
2023-05-02T13:00:23.029Z,82.97
2023-05-02T13:05:27.692Z,88.56
2023-05-02T13:10:16.479Z,149.17
2023-05-02T13:15:22.803Z,187.02
2023-05-02T13:20:28.830Z,165.13
2023-05-02T13:25:17.664Z,176.05
2023-05-02T13:30:23.725Z,200.03
2023-05-02T13:35:29.822Z,241.41
2023-05-02T13:40:20.127Z,537.41
2023-05-02T13:45:25.048Z,346.29
2023-05-02T13:50:31.135Z,487.68
2023-05-02T13:55:20.014Z,351.17
2023-05-02T14:00:29.340Z,267.32
2023-05-02T14:05:32.273Z,469.48
2023-05-02T14:10:21.081Z,386.83
2023-05-02T14:15:27.324Z,276.54
2023-05-02T14:20:33.444Z,159.07
2023-05-02T14:25:22.229Z,153.70
2023-05-02T14:30:28.480Z,158.84
2023-05-02T14:35:17.540Z,163.09
2023-05-02T14:40:25.116Z,157.53
2023-05-02T14:45:29.500Z,146.21
2023-05-02T14:50:18.500Z,120.00
2023-05-02T14:55:24.808Z,107.34
2023-05-02T15:00:32.886Z,103.25
2023-05-02T15:05:19.265Z,106.14
2023-05-02T15:10:25.361Z,121.65
2023-05-02T15:15:31.550Z,126.45
2023-05-02T15:20:22.134Z,131.54
2023-05-02T15:25:28.808Z,142.17
2023-05-02T15:30:32.740Z,157.92
2023-05-02T15:35:21.749Z,168.78
2023-05-02T15:40:27.915Z,167.21
2023-05-02T15:45:17.092Z,151.46
2023-05-02T15:50:22.837Z,142.02
2023-05-02T15:55:28.982Z,127.66
2023-05-02T16:00:23.268Z,127.13
2023-05-02T16:05:23.316Z,184.83
2023-05-02T16:10:29.512Z,176.87
2023-05-02T16:15:18.270Z,163.30
2023-05-02T16:20:25.321Z,215.81
2023-05-02T16:25:30.444Z,165.78
2023-05-02T16:30:19.669Z,200.90
2023-05-02T16:35:25.498Z,174.38
2023-05-02T16:40:31.609Z,159.98
2023-05-02T16:45:20.611Z,144.69
2023-05-02T16:50:26.887Z,136.64
2023-05-02T16:55:32.704Z,125.90
2023-05-02T17:00:23.305Z,113.74
2023-05-02T17:05:27.819Z,75.60
2023-05-02T17:10:17.050Z,41.75
2023-05-02T17:15:23.188Z,38.57
2023-05-02T17:20:29.044Z,45.87
2023-05-02T17:25:18.157Z,48.83
2023-05-02T17:30:24.296Z,39.94
2023-05-02T17:35:30.321Z,34.67
2023-05-02T17:40:20.333Z,34.22
2023-05-02T17:45:26.822Z,32.80
2023-05-02T17:50:31.356Z,29.33
2023-05-02T17:55:20.356Z,23.49
2023-05-02T18:00:29.532Z,19.75
2023-05-02T18:05:31.269Z,17.38
2023-05-02T18:10:20.240Z,13.94
2023-05-02T18:15:26.636Z,9.51
2023-05-02T18:20:32.606Z,6.10
2023-05-02T18:25:21.454Z,4.15
2023-05-02T18:30:27.713Z,3.17
2023-05-02T18:35:16.693Z,1.51
2023-05-02T18:40:23.815Z,0.22
2023-05-02T18:45:28.872Z,0.00
2023-05-02T18:50:17.928Z,0.00
2023-05-02T18:55:25.105Z,0.00
2023-05-02T19:00:29.967Z,0.00
2023-05-02T19:05:18.356Z,0.00
2023-05-02T19:10:25.267Z,0.00
2023-05-02T19:15:34.254Z,0.00
2023-05-02T19:20:21.453Z,0.00
2023-05-02T19:25:26.607Z,0.00
2023-05-02T19:30:33.202Z,0.00
2023-05-02T19:35:21.648Z,0.00
2023-05-02T19:40:27.603Z,0.00
2023-05-02T19:45:33.666Z,0.00
2023-05-02T19:50:22.704Z,0.00
2023-05-02T19:55:28.792Z,0.00
2023-05-02T20:00:18.366Z,0.00
2023-05-02T20:05:23.508Z,0.00
2023-05-02T20:10:29.857Z,0.00
2023-05-02T20:15:19.081Z,0.00
2023-05-02T20:20:26.233Z,0.00
2023-05-02T20:25:30.980Z,0.00
2023-05-02T20:30:20.159Z,0.00
2023-05-02T20:35:26.337Z,0.00
2023-05-02T20:40:32.466Z,0.00
2023-05-02T20:45:21.819Z,0.00
2023-05-02T20:50:27.476Z,0.00
2023-05-02T20:55:33.533Z,0.00
2023-05-02T21:00:23.995Z,0.00
2023-05-02T21:05:27.966Z,0.00
2023-05-02T21:10:17.214Z,0.00
2023-05-02T21:15:23.470Z,0.00
2023-05-02T21:20:29.556Z,0.00
2023-05-02T21:25:18.570Z,0.00
2023-05-02T21:30:24.690Z,0.00
2023-05-02T21:35:30.657Z,0.00
2023-05-02T21:40:19.849Z,0.00
2023-05-02T21:45:26.173Z,0.00
2023-05-02T21:50:31.872Z,0.00
2023-05-02T21:55:20.711Z,0.00
2023-05-02T22:00:30.047Z,0.00
2023-05-02T22:05:32.569Z,0.00
2023-05-02T22:10:21.114Z,0.00
2023-05-02T22:15:27.283Z,0.00
2023-05-02T22:20:33.920Z,0.00
2023-05-02T22:25:22.027Z,0.00
2023-05-02T22:30:27.950Z,0.00
2023-05-02T22:35:17.084Z,0.00
2023-05-02T22:40:24.103Z,0.00
2023-05-02T22:45:29.274Z,0.00
2023-05-02T22:50:18.219Z,0.00
2023-05-02T22:55:24.236Z,0.00
2023-05-02T23:00:30.682Z,0.00
2023-05-02T23:05:18.569Z,0.00
2023-05-02T23:10:25.539Z,0.00
2023-05-02T23:15:31.406Z,0.00
2023-05-02T23:20:21.341Z,0.00
2023-05-02T23:25:26.595Z,0.00
2023-05-02T23:30:32.431Z,0.00
2023-05-02T23:35:21.821Z,0.00
2023-05-02T23:40:27.981Z,0.00
2023-05-02T23:45:35.527Z,0.00
2023-05-02T23:50:22.818Z,0.00
2023-05-02T23:55:28.748Z,0.00
